Dallas, Texas
Traffic Map
Current Weather Conditions
Dallas, Texas
Clear
Clear
87°
Feels Like: 90°
Wind Chill: 87° Ceiling: Unl
Heat Index: 90° Visibility: 10mi
Dew Point: 67° Wind: 7mph
Humidity: 51% Direction: 200° (SSW)
Pressure: 29.9in Gusts: 0mph
Raw Report DataKDAL 280753Z 20006KT 10SM CLR 31/19 A2990 RMK AO2 SLP118 T03060194
Traffic Incident Summary
Active as of:
Severity:
Category:
InformationThere was an issue retrieving the traffic information for this location. Please try a different location or try again shortly.
Advertisements
Track Severe Weather on mobile